Aeroporto :
LOGIN :

Iscrizione | Disclaimer

   EN    FR    IT 

 










Sommario :    VFR   VFR Marginale   IFR   IFR Intensivo   IFR Molto Intensivo
Visibilità : 
Base nubi : 
>= 8 km
>= 3000ft
5 / 8 km
1000 / 3000 ft
1500m / 5 km
500 / 1000 ft
800 / 1500m
200 / 500 ft
< 800m
< 200 ft
Simboli :   Temporali  Nebbia  Neve Forte  Precipitazioni Forti  Vento > 20 kt
SIGMETs :   Varie  Temporali  Ghiacco  Turbolenza  Onda orograficha  Ceneri Vulcaniche







- Altitudine del aeroporto : 355 ft
- Codice IATA : VBS


LIPO - Montichiari - Brescia

ULTIMO METAR :
  • 221450Z 24006KT 210V280 CAVOK 19/01 Q1020

METARs OBSOLETI :
  • 221350Z 00000KT CAVOK 19/01 Q1020
  • 221250Z 23004KT CAVOK 19/01 Q1021

TAF TAF LIPO
Valido dal 22 a 12 ore il 23 a 12 ore UTC


221100Z 2212/2312 VRB05KT CAVOK
Nessun NOTAM noto per questo aeroporto.
1 SIGMET conosciuto per la FIR Milano (LIMM) :
 
Turbolenza severa
LIMM SIGMET 8 VALID 221500/221700 LIIP
LIMM MILANO FIR SEV TURB FCST SE OF LINE N4325 E01018 - N4519 E01311 FL230/350 MOV SE WKN=



MetMap, La meteo Aeronautica in un colpo d'occhio ! - Copyright ORBIFLY Dicembre 2007 - Disclaimer

ORBIFLY MET'MAP TEAM :

Programmazione e sviluppo : Alexandra Zaïnal
Concezione e sviluppo : Baudouin d'Aumeries
Co-Programmazione e sviluppo : Marc-Olivier Méhu
Supporto tecnico e logistico : Manuel Goepfert
Aiuto per la traduzione : Arnaldo La Scala

Contatto : metmap@orbifly.com




FONTI E CREDITI :

   NOAA